createdAt,value
2022-10-23T00:04:28.952Z,100927.84
2022-10-23T00:09:30.446Z,100923.44
2022-10-23T00:14:31.923Z,100923.78
2022-10-23T00:19:33.324Z,100925.66
2022-10-23T00:24:34.777Z,100924.13
2022-10-23T00:29:36.261Z,100926.44
2022-10-23T00:34:37.669Z,100920.66
2022-10-23T00:39:39.104Z,100920.34
2022-10-23T00:44:40.460Z,100904.31
2022-10-23T00:49:42.825Z,100898.47
2022-10-23T00:54:45.315Z,100896.53
2022-10-23T00:59:46.798Z,100902.03
2022-10-23T01:04:48.549Z,100895.72
2022-10-23T01:10:03.857Z,100897.47
2022-10-23T01:15:28.736Z,100901.81
2022-10-23T01:20:44.519Z,100898.31
2022-10-23T01:26:10.044Z,100904.44
2022-10-23T01:31:18.581Z,100889.63
2022-10-23T01:36:23.743Z,100870.44
2022-10-23T01:41:40.110Z,100870.81
2022-10-23T01:46:45.550Z,100866.84
2022-10-23T01:51:52.880Z,100860.13
2022-10-23T01:56:55.635Z,100848.78
2022-10-23T02:02:01.130Z,100843.50
2022-10-23T02:07:03.312Z,100833.38
2022-10-23T02:12:13.219Z,100833.06
2022-10-23T02:17:34.478Z,100828.41
2022-10-23T02:22:41.019Z,100829.00
2022-10-23T02:27:47.553Z,100816.97
2022-10-23T02:32:53.583Z,100803.94
2022-10-23T02:37:57.729Z,100810.34
2022-10-23T02:43:32.175Z,100804.38
2022-10-23T02:48:56.913Z,100804.66
2022-10-23T02:54:08.617Z,100797.19
2022-10-23T02:59:46.986Z,100788.34
2022-10-23T03:04:50.014Z,100786.34
2022-10-23T03:09:51.477Z,100771.78
2022-10-23T03:14:53.055Z,100762.22
2022-10-23T03:19:54.488Z,100749.50
2022-10-23T03:24:55.952Z,100744.56
2022-10-23T03:29:57.517Z,100734.22
2022-10-23T03:34:59.031Z,100746.19
2022-10-23T03:40:00.927Z,100743.31
2022-10-23T03:45:04.974Z,100743.19
2022-10-23T03:50:08.383Z,100748.53
2022-10-23T03:55:10.312Z,100746.94
2022-10-23T04:00:12.315Z,100740.63
2022-10-23T04:05:21.097Z,100732.84
2022-10-23T04:10:28.907Z,100737.69
2022-10-23T04:15:30.351Z,100728.63
2022-10-23T04:20:32.656Z,100726.31
2022-10-23T04:25:36.875Z,100712.00
2022-10-23T04:30:38.959Z,100708.59
2022-10-23T04:35:40.892Z,100702.53
2022-10-23T04:40:42.351Z,100710.94
2022-10-23T04:45:43.766Z,100699.59
2022-10-23T04:50:56.687Z,100685.31
2022-10-23T04:56:03.606Z,100696.13
2022-10-23T05:01:20.597Z,100700.13
2022-10-23T05:06:22.878Z,100702.00
2022-10-23T05:11:33.644Z,100697.13
2022-10-23T05:16:53.988Z,100675.03
2022-10-23T05:21:56.182Z,100670.00
2022-10-23T05:27:04.401Z,100657.44
2022-10-23T05:32:10.121Z,100646.06
2022-10-23T05:37:14.445Z,100659.19
2022-10-23T05:42:16.714Z,100662.72
2022-10-23T05:47:18.210Z,100657.72
2022-10-23T05:52:41.153Z,100642.56
2022-10-23T05:57:48.606Z,100639.38
2022-10-23T06:02:54.623Z,100631.03
2022-10-23T06:08:06.459Z,100634.66
2022-10-23T06:13:08.048Z,100630.16
2022-10-23T06:18:09.673Z,100629.91
2022-10-23T06:23:21.450Z,100625.44
2022-10-23T06:28:42.404Z,100621.06
2022-10-23T06:33:43.928Z,100623.16
2022-10-23T06:38:45.776Z,100623.75
2022-10-23T06:43:49.083Z,100620.69
2022-10-23T06:49:16.472Z,100613.34
2022-10-23T06:54:23.021Z,100610.72
2022-10-23T06:59:24.758Z,100613.34
2022-10-23T07:04:27.859Z,100609.47
2022-10-23T07:09:29.850Z,100608.41
2022-10-23T07:14:32.145Z,100602.22
2022-10-23T07:19:35.758Z,100597.44
2022-10-23T07:24:44.972Z,100585.97
2022-10-23T07:30:00.923Z,100573.13
2022-10-23T07:35:08.071Z,100580.94
2022-10-23T07:40:11.322Z,100581.97
2022-10-23T07:45:18.290Z,100587.56
2022-10-23T07:50:21.254Z,100585.78
2022-10-23T07:55:23.083Z,100572.66
2022-10-23T08:00:29.365Z,100572.00
2022-10-23T08:05:41.800Z,100561.75
2022-10-23T08:10:46.452Z,100570.19
2022-10-23T08:15:53.886Z,100584.94
2022-10-23T08:21:16.244Z,100579.13
2022-10-23T08:26:18.785Z,100582.59
2022-10-23T08:31:21.359Z,100580.41
2022-10-23T08:36:41.155Z,100566.75
2022-10-23T08:41:48.796Z,100562.88
2022-10-23T08:46:59.206Z,100551.91
2022-10-23T08:52:28.644Z,100533.81
2022-10-23T08:57:43.756Z,100519.94
2022-10-23T09:02:51.214Z,100508.97
2022-10-23T09:08:24.263Z,100500.63
2022-10-23T09:13:47.423Z,100493.97
2022-10-23T09:18:50.059Z,100479.75
2022-10-23T09:23:51.561Z,100495.19
2022-10-23T09:29:02.805Z,100480.31
2022-10-23T09:34:06.467Z,100489.13
2022-10-23T09:39:28.991Z,100473.53
2022-10-23T09:44:33.052Z,100464.16
2022-10-23T09:49:35.296Z,100448.53
2022-10-23T09:54:39.875Z,100447.97
2022-10-23T09:59:42.390Z,100442.13
2022-10-23T10:04:43.909Z,100443.03
2022-10-23T10:09:45.444Z,100447.28
2022-10-23T10:14:59.774Z,100435.78
2022-10-23T10:20:35.908Z,100421.53
2022-10-23T10:25:49.866Z,100412.53
2022-10-23T10:31:23.633Z,100395.13
2022-10-23T10:36:36.868Z,100386.97
2022-10-23T10:41:48.423Z,100393.72
2022-10-23T10:46:59.479Z,100391.28
2022-10-23T10:52:28.966Z,100373.56
2022-10-23T10:57:43.076Z,100365.84
2022-10-23T11:03:00.459Z,100350.78
2022-10-23T11:08:22.159Z,100349.13
2022-10-23T11:13:32.448Z,100345.41
2022-10-23T11:18:35.863Z,100331.81
2022-10-23T11:24:13.398Z,100338.19
2022-10-23T11:29:32.863Z,100322.81
2022-10-23T11:34:37.109Z,100308.78
2022-10-23T11:39:39.604Z,100309.19
2022-10-23T11:44:49.789Z,100307.63
2022-10-23T11:50:08.935Z,100294.06
2022-10-23T11:55:24.085Z,100288.56
2022-10-23T12:00:31.077Z,100290.09
2022-10-23T12:05:42.199Z,100273.03
2022-10-23T12:10:47.176Z,100271.38
2022-10-23T12:15:57.131Z,100272.00
2022-10-23T12:21:04.479Z,100248.50
2022-10-23T12:26:24.737Z,100257.34
2022-10-23T12:31:34.225Z,100249.38
2022-10-23T12:37:09.026Z,100231.03
2022-10-23T12:42:21.962Z,100227.59
2022-10-23T12:47:23.467Z,100214.88
2022-10-23T12:52:25.252Z,100204.84
2022-10-23T12:57:30.062Z,100192.91
2022-10-23T13:02:32.793Z,100198.94
2022-10-23T13:07:42.682Z,100192.25
2022-10-23T13:12:54.872Z,100180.72
2022-10-23T13:17:56.259Z,100175.88
2022-10-23T13:23:24.276Z,100169.19
2022-10-23T13:28:33.045Z,100165.31
2022-10-23T13:33:39.187Z,100152.34
2022-10-23T13:38:43.046Z,100138.56
2022-10-23T13:43:47.349Z,100142.03
2022-10-23T13:48:49.311Z,100137.28
2022-10-23T13:53:51.299Z,100138.66
2022-10-23T13:58:53.194Z,100140.72
2022-10-23T14:03:57.619Z,100130.41
2022-10-23T14:08:59.249Z,100115.63
2022-10-23T14:14:00.845Z,100120.25
2022-10-23T14:19:02.277Z,100118.94
2022-10-23T14:24:03.766Z,100122.19
2022-10-23T14:29:09.770Z,100110.44
2022-10-23T14:34:13.423Z,100102.38
2022-10-23T14:39:14.978Z,100133.09
2022-10-23T14:44:16.370Z,100121.22
2022-10-23T14:49:18.045Z,100147.41
2022-10-23T14:54:19.479Z,100134.22
2022-10-23T14:59:20.973Z,100135.09
2022-10-23T15:04:22.878Z,100123.88
2022-10-23T15:09:25.148Z,100117.94
2022-10-23T15:14:27.068Z,100120.38
2022-10-23T15:19:28.571Z,100110.91
2022-10-23T15:24:30.159Z,100111.88
2022-10-23T15:29:31.763Z,100082.81
2022-10-23T15:34:33.436Z,100096.66
2022-10-23T15:39:35.573Z,100135.59
2022-10-23T15:44:39.302Z,100141.44
2022-10-23T15:49:40.799Z,100149.25
2022-10-23T15:54:42.267Z,100130.53
2022-10-23T15:59:43.665Z,100138.09
2022-10-23T16:04:45.060Z,100131.44
2022-10-23T16:09:46.546Z,100091.44
2022-10-23T16:14:48.088Z,100081.72
2022-10-23T16:19:49.695Z,100071.66
2022-10-23T16:24:51.156Z,100094.50
2022-10-23T16:29:52.754Z,100108.72
2022-10-23T16:34:54.207Z,100076.28
2022-10-23T16:39:55.668Z,100003.66
2022-10-23T16:45:15.590Z,100044.66
2022-10-23T16:50:17.287Z,100028.06
2022-10-23T16:55:18.894Z,100030.63
2022-10-23T17:00:22.518Z,100040.03
2022-10-23T17:05:24.050Z,100068.59
2022-10-23T17:10:25.593Z,100086.31
2022-10-23T17:15:27.088Z,100063.38
2022-10-23T17:20:28.621Z,100034.47
2022-10-23T17:25:30.276Z,100052.13
2022-10-23T17:30:31.885Z,100078.16
2022-10-23T17:35:33.283Z,100078.78
2022-10-23T17:40:34.826Z,100087.03
2022-10-23T17:45:36.588Z,100089.34
2022-10-23T17:50:38.202Z,100096.44
2022-10-23T17:55:40.477Z,100099.78
2022-10-23T18:00:41.934Z,100084.13
2022-10-23T18:05:43.427Z,100069.16
2022-10-23T18:10:44.918Z,100066.28
2022-10-23T18:15:46.910Z,100047.97
2022-10-23T18:20:48.332Z,100054.19
2022-10-23T18:25:49.770Z,100059.38
2022-10-23T18:30:54.630Z,100055.72
2022-10-23T18:35:58.311Z,100067.06
2022-10-23T18:40:59.726Z,100052.84
2022-10-23T18:46:01.184Z,100054.88
2022-10-23T18:51:02.724Z,100052.19
2022-10-23T18:56:06.705Z,100045.00
2022-10-23T19:01:08.259Z,100036.06
2022-10-23T19:06:09.794Z,100041.91
2022-10-23T19:11:13.119Z,100027.50
2022-10-23T19:16:25.329Z,100024.94
2022-10-23T19:21:31.655Z,100034.63
2022-10-23T19:26:35.561Z,100038.03
2022-10-23T19:31:37.371Z,100049.88
2022-10-23T19:36:38.784Z,100053.03
2022-10-23T19:41:40.209Z,100054.19
2022-10-23T19:46:41.628Z,100029.28
2022-10-23T19:51:50.987Z,100026.56
2022-10-23T19:56:52.935Z,100049.22
2022-10-23T20:01:54.446Z,100040.00
2022-10-23T20:06:56.079Z,100073.56
2022-10-23T20:11:57.614Z,100187.78
2022-10-23T20:16:59.886Z,100197.59
2022-10-23T20:22:01.411Z,100197.78
2022-10-23T20:27:02.834Z,100134.03
2022-10-23T20:32:04.375Z,100124.69
2022-10-23T20:37:05.809Z,100126.44
2022-10-23T20:42:07.598Z,100129.78
2022-10-23T20:47:09.112Z,100114.81
2022-10-23T20:52:10.568Z,100112.69
2022-10-23T20:57:11.950Z,100107.34
2022-10-23T21:02:13.461Z,100113.06
2022-10-23T21:07:15.075Z,100118.25
2022-10-23T21:12:16.464Z,100119.75
2022-10-23T21:17:18.221Z,100118.72
2022-10-23T21:22:19.778Z,100118.38
2022-10-23T21:27:21.191Z,100111.66
2022-10-23T21:32:22.609Z,100127.25
2022-10-23T21:37:25.401Z,100129.03
2022-10-23T21:42:26.907Z,100128.22
2022-10-23T21:47:28.293Z,100119.69
2022-10-23T21:52:29.723Z,100130.59
2022-10-23T21:57:32.972Z,100130.97
2022-10-23T22:02:34.579Z,100123.69
2022-10-23T22:07:36.081Z,100134.69
2022-10-23T22:12:37.495Z,100133.41
2022-10-23T22:17:38.927Z,100136.50
2022-10-23T22:22:40.344Z,100144.41
2022-10-23T22:27:42.074Z,100133.91
2022-10-23T22:32:43.892Z,100124.22
2022-10-23T22:37:45.611Z,100122.34
2022-10-23T22:42:47.203Z,100120.16
2022-10-23T22:47:48.820Z,100119.66
2022-10-23T22:52:50.259Z,100118.88
2022-10-23T22:57:51.676Z,100116.25
2022-10-23T23:02:53.117Z,100109.16
2022-10-23T23:07:54.559Z,100109.03
2022-10-23T23:12:55.951Z,100097.25
2022-10-23T23:17:57.407Z,100111.78
2022-10-23T23:22:58.786Z,100115.06
2022-10-23T23:28:00.280Z,100117.66
2022-10-23T23:33:23.785Z,100116.59
2022-10-23T23:38:25.239Z,100104.16
2022-10-23T23:43:26.627Z,100097.06
2022-10-23T23:48:28.210Z,100095.06
2022-10-23T23:53:29.678Z,100084.44
2022-10-23T23:58:31.373Z,100073.34
